Wednesday, January 17, 2018, 8:10 AM EST
Back to Local

KCBE, Cumberland, Greater Cumberland Regional Airport

Location: Wiley Ford, MD, United States Lat: 39.615
Local Time: 8:10 AM EST (13:10 GMT) Lon: -78.761
Time Zone: US/Eastern Elev: 774 ft

Show me the last for .
Show Decoded

2018-01-17 07:37 METAR KCBE 171237Z AUTO 32007KT 10SM SCT080 M10/M16 A3049 RMK AO1 =
2018-01-17 07:17 METAR KCBE 171217Z AUTO 30008KT 261V331 10SM BKN080 M09/M15 A3049 RMK AO1 =
2018-01-17 06:57 METAR KCBE 171157Z AUTO 32007KT 291V351 10SM BKN080 M08/M15 A3048 RMK AO1 =
2018-01-17 02:29 METAR KCBE 170729Z AUTO 29005G14KT 10SM CLR M05/M12 A3044 RMK AO1 =
2018-01-17 02:17 METAR KCBE 170717Z AUTO 31009KT 10SM CLR M05/M11 A3043 RMK AO1 =
2018-01-17 01:57 METAR KCBE 170657Z AUTO 32010G15KT 281V341 10SM CLR M05/M11 A3042 RMK AO1 =
2018-01-17 01:37 METAR KCBE 170637Z AUTO 32012G16KT 10SM SCT010 SCT013 SCT065 M05/M11 A3042 RMK
                 AO1 =
2018-01-17 01:17 METAR KCBE 170617Z AUTO 31006KT 10SM SCT008 BKN012 BKN020 M04/M10 A3042 RMK AO1
                 =
2018-01-17 00:57 METAR KCBE 170557Z AUTO 31005KT 10SM SCT008 BKN013 OVC024 M04/M10 A3042 RMK AO1
                 =
2018-01-17 00:37 METAR KCBE 170537Z AUTO 32005KT 7SM SCT007 OVC015 M03/M09 A3042 RMK AO1 =
2018-01-17 00:17 METAR KCBE 170517Z AUTO 32007G14KT 271V001 5SM BKN014 OVC019 M03/M08 A3043 RMK
                 AO1 =
2018-01-16 23:57 METAR KCBE 170457Z AUTO 30007KT 7SM BKN014 OVC019 M03/M08 A3042 RMK AO1 =
2018-01-16 23:37 METAR KCBE 170437Z AUTO 30007G14KT 5SM OVC014 M02/M07 A3043 RMK AO1 =
2018-01-16 23:17 METAR KCBE 170417Z AUTO 27008KT 7SM SCT010 BKN018 OVC045 M02/M07 A3043 RMK AO1 =
2018-01-16 22:57 METAR KCBE 170357Z AUTO 29005KT 10SM SCT016 SCT021 OVC045 M01/M06 A3043 RMK AO1
                 =
2018-01-16 22:37 METAR KCBE 170337Z AUTO 29006KT 261V321 10SM OVC045 M01/M06 A3042 RMK AO1 =
2018-01-16 22:17 METAR KCBE 170317Z AUTO 31007KT 281V341 10SM OVC043 M01/M06 A3042 RMK AO1 =
2018-01-16 21:57 METAR KCBE 170257Z AUTO 33004KT 10SM OVC041 M01/M04 A3041 RMK AO1 =
2018-01-16 21:37 METAR KCBE 170237Z AUTO 00000KT 10SM OVC039 M01/M04 A3042 RMK AO1 =
2018-01-16 21:17 METAR KCBE 170217Z AUTO 00000KT 10SM OVC039 M01/M03 A3041 RMK AO1 =
2018-01-16 20:57 METAR KCBE 170157Z AUTO 33003KT 10SM OVC035 M01/M03 A3041 RMK AO1 =
2018-01-16 20:37 METAR KCBE 170137Z AUTO 00000KT 4SM SCT007 SCT022 BKN033 M02/M03 A3041 RMK AO1 =
2018-01-16 20:17 METAR KCBE 170117Z AUTO 00000KT 2 1/2SM BKN005 OVC022 M02/M03 A3040 RMK AO1 =
2018-01-16 19:57 METAR KCBE 170057Z AUTO 00000KT 1 3/4SM OVC005 M02/M04 A3040 RMK AO1 =
2018-01-16 19:37 METAR KCBE 170037Z AUTO 00000KT 1 3/4SM BKN005 M02/M04 A3040 RMK AO1 =
2018-01-16 19:17 METAR KCBE 170017Z AUTO 00000KT 1 1/4SM OVC005 M02/M03 A3039 RMK AO1 =
2018-01-16 18:57 METAR KCBE 162357Z AUTO 00000KT 1 3/4SM OVC007 M02/M03 A3039 RMK AO1 =
2018-01-16 18:37 METAR KCBE 162337Z AUTO 00000KT 2SM OVC007 M02/M03 A3039 RMK AO1 =
2018-01-16 18:17 METAR KCBE 162317Z AUTO 00000KT 2 1/2SM OVC005 M02/M03 A3039 RMK AO1 =
2018-01-16 17:57 METAR KCBE 162257Z AUTO 00000KT 2SM OVC005 M02/M03 A3038 RMK AO1 =
2018-01-16 17:37 METAR KCBE 162237Z AUTO 00000KT 1 3/4SM OVC005 M02/M03 A3037 RMK AO1 =
2018-01-16 17:17 METAR KCBE 162217Z AUTO 00000KT 1SM OVC005 M01/M03 A3037 RMK AO1 =
2018-01-16 16:57 METAR KCBE 162157Z AUTO 00000KT 1 1/4SM OVC005 M01/M04 A3038 RMK AO1 =
2018-01-16 16:37 METAR KCBE 162137Z AUTO 00000KT 1 1/4SM BKN005 M01/M03 A3037 RMK AO1 =
2018-01-16 16:17 METAR KCBE 162117Z AUTO 00000KT 1SM BKN003 M01/M03 A3037 RMK AO1 =
2018-01-16 15:57 METAR KCBE 162057Z AUTO 00000KT 1SM BKN003 M01/M03 A3037 RMK AO1 =
2018-01-16 15:37 METAR KCBE 162037Z AUTO 00000KT 1/2SM OVC005 M01/M03 A3037 RMK AO1 =
2018-01-16 15:17 METAR KCBE 162017Z AUTO 00000KT 1SM OVC005 M01/M04 A3037 RMK AO1 =
2018-01-16 14:57 METAR KCBE 161957Z AUTO 00000KT 1SM OVC005 M01/M04 A3037 RMK AO1 =
2018-01-16 14:37 METAR KCBE 161937Z AUTO 00000KT 1 1/4SM OVC005 M01/M04 A3037 RMK AO1 =
2018-01-16 14:17 METAR KCBE 161917Z AUTO 00000KT 2SM OVC007 M01/M04 A3039 RMK AO1 =
2018-01-16 13:57 METAR KCBE 161857Z AUTO 00000KT 1 3/4SM OVC007 M01/M05 A3039 RMK AO1 =
2018-01-16 12:29 METAR KCBE 161729Z AUTO 00000KT 10SM CLR 00/M05 A3042 RMK AO1 =
2018-01-16 12:17 METAR KCBE 161717Z AUTO 00000KT 10SM 00/M05 A3042 RMK AO1 =
2018-01-16 11:57 METAR KCBE 161657Z AUTO 00000KT 10SM CLR M01/M06 A3043 RMK AO1 =
2018-01-16 11:37 METAR KCBE 161637Z AUTO 00000KT 10SM SCT009 M01/M06 A3044 RMK AO1 =
2018-01-16 11:17 METAR KCBE 161617Z AUTO 00000KT 5SM BKN009 OVC014 M01/M06 A3045 RMK AO1 =
2018-01-16 10:57 METAR KCBE 161557Z AUTO 00000KT 7SM SCT007 SCT012 M01/M06 A3046 RMK AO1 =
2018-01-16 10:37 METAR KCBE 161537Z AUTO 00000KT 7SM SCT010 M02/M06 A3046 RMK AO1 =
2018-01-16 10:17 METAR KCBE 161517Z AUTO 00000KT 5SM SCT009 SCT014 M02/M06 A3046 RMK AO1 =
2018-01-16 09:57 METAR KCBE 161457Z AUTO 00000KT 5SM SCT009 SCT015 M02/M07 A3046 RMK AO1 =
2018-01-16 09:37 METAR KCBE 161437Z AUTO 00000KT 7SM CLR M02/M07 A3046 RMK AO1 =
2018-01-16 09:17 METAR KCBE 161417Z AUTO 00000KT 4SM CLR M02/M07 A3045 RMK AO1 =
2018-01-16 08:57 METAR KCBE 161357Z AUTO 00000KT 7SM SCT003 A3045 RMK AO1 =
2018-01-16 08:37 METAR KCBE 161337Z AUTO 00000KT 7SM SCT003 A3045 RMK AO1 =
2018-01-16 08:17 METAR KCBE 161317Z AUTO 00000KT 10SM CLR A3045 RMK AO1 =

Support USWX by starting your Amazon purchase here.